sensor_id;sensor_type;location;lat;lon;timestamp;P1;durP1;ratioP1;P2;durP2;ratioP2
15635;SDS011;7917;50.818;6.972;2022-07-01T00:00:00;6.55;;;5.50;;
15635;SDS011;7917;50.818;6.972;2022-07-01T00:02:29;7.47;;;5.70;;
15635;SDS011;7917;50.818;6.972;2022-07-01T00:04:56;5.90;;;5.30;;
15635;SDS011;7917;50.818;6.972;2022-07-01T00:07:23;6.00;;;5.22;;
15635;SDS011;7917;50.818;6.972;2022-07-01T00:09:50;8.23;;;6.05;;
15635;SDS011;7917;50.818;6.972;2022-07-01T00:12:19;8.30;;;6.13;;
15635;SDS011;7917;50.818;6.972;2022-07-01T00:14:46;7.28;;;5.97;;
15635;SDS011;7917;50.818;6.972;2022-07-01T00:17:14;6.93;;;5.47;;
15635;SDS011;7917;50.818;6.972;2022-07-01T00:19:41;7.75;;;5.97;;
15635;SDS011;7917;50.818;6.972;2022-07-01T00:22:10;10.02;;;6.15;;
15635;SDS011;7917;50.818;6.972;2022-07-01T00:24:37;9.55;;;6.38;;
15635;SDS011;7917;50.818;6.972;2022-07-01T00:27:04;10.77;;;6.68;;
15635;SDS011;7917;50.818;6.972;2022-07-01T00:29:33;8.65;;;6.57;;
15635;SDS011;7917;50.818;6.972;2022-07-01T00:32:02;9.27;;;7.15;;
15635;SDS011;7917;50.818;6.972;2022-07-01T00:34:29;10.63;;;6.88;;
15635;SDS011;7917;50.818;6.972;2022-07-01T00:36:57;7.78;;;6.68;;
15635;SDS011;7917;50.818;6.972;2022-07-01T00:39:24;7.22;;;6.03;;
15635;SDS011;7917;50.818;6.972;2022-07-01T00:41:51;10.93;;;7.15;;
15635;SDS011;7917;50.818;6.972;2022-07-01T00:44:19;11.52;;;7.35;;
15635;SDS011;7917;50.818;6.972;2022-07-01T00:46:49;7.70;;;6.68;;
15635;SDS011;7917;50.818;6.972;2022-07-01T00:49:17;10.15;;;6.50;;
15635;SDS011;7917;50.818;6.972;2022-07-01T00:51:47;8.05;;;6.43;;
15635;SDS011;7917;50.818;6.972;2022-07-01T00:54:15;10.52;;;7.45;;
15635;SDS011;7917;50.818;6.972;2022-07-01T00:56:43;15.82;;;7.07;;
15635;SDS011;7917;50.818;6.972;2022-07-01T00:59:10;10.55;;;7.30;;
15635;SDS011;7917;50.818;6.972;2022-07-01T01:01:39;8.90;;;6.82;;
15635;SDS011;7917;50.818;6.972;2022-07-01T01:04:08;7.97;;;6.78;;
15635;SDS011;7917;50.818;6.972;2022-07-01T01:06:36;13.20;;;6.57;;
15635;SDS011;7917;50.818;6.972;2022-07-01T01:09:04;7.07;;;6.28;;
15635;SDS011;7917;50.818;6.972;2022-07-01T01:11:31;9.45;;;6.38;;
15635;SDS011;7917;50.818;6.972;2022-07-01T01:13:59;9.57;;;6.18;;
15635;SDS011;7917;50.818;6.972;2022-07-01T01:16:26;9.73;;;6.45;;
15635;SDS011;7917;50.818;6.972;2022-07-01T01:18:54;8.98;;;6.28;;
15635;SDS011;7917;50.818;6.972;2022-07-01T01:21:23;9.68;;;6.00;;
15635;SDS011;7917;50.818;6.972;2022-07-01T01:23:51;8.40;;;5.90;;
15635;SDS011;7917;50.818;6.972;2022-07-01T01:26:20;10.48;;;5.72;;
15635;SDS011;7917;50.818;6.972;2022-07-01T01:28:49;6.93;;;5.35;;
15635;SDS011;7917;50.818;6.972;2022-07-01T01:31:16;10.25;;;5.50;;
15635;SDS011;7917;50.818;6.972;2022-07-01T01:33:45;13.30;;;4.97;;
15635;SDS011;7917;50.818;6.972;2022-07-01T01:36:12;8.68;;;5.30;;
15635;SDS011;7917;50.818;6.972;2022-07-01T01:38:41;9.50;;;5.20;;
15635;SDS011;7917;50.818;6.972;2022-07-01T01:41:09;11.20;;;5.13;;
15635;SDS011;7917;50.818;6.972;2022-07-01T01:43:36;8.40;;;4.97;;
15635;SDS011;7917;50.818;6.972;2022-07-01T01:46:04;9.27;;;4.47;;
15635;SDS011;7917;50.818;6.972;2022-07-01T01:48:31;9.27;;;4.47;;
15635;SDS011;7917;50.818;6.972;2022-07-01T01:50:58;6.68;;;3.90;;
15635;SDS011;7917;50.818;6.972;2022-07-01T01:53:26;8.25;;;4.07;;
15635;SDS011;7917;50.818;6.972;2022-07-01T01:55:55;4.38;;;3.92;;
15635;SDS011;7917;50.818;6.972;2022-07-01T01:58:22;4.18;;;3.75;;
15635;SDS011;7917;50.818;6.972;2022-07-01T02:00:51;9.55;;;3.30;;
15635;SDS011;7917;50.818;6.972;2022-07-01T02:03:18;6.18;;;3.33;;
15635;SDS011;7917;50.818;6.972;2022-07-01T02:05:46;6.25;;;3.35;;
15635;SDS011;7917;50.818;6.972;2022-07-01T02:08:15;6.82;;;3.30;;
15635;SDS011;7917;50.818;6.972;2022-07-01T02:10:43;6.43;;;2.90;;
15635;SDS011;7917;50.818;6.972;2022-07-01T02:13:13;7.55;;;3.38;;
15635;SDS011;7917;50.818;6.972;2022-07-01T02:15:41;6.22;;;2.72;;
15635;SDS011;7917;50.818;6.972;2022-07-01T02:18:08;4.90;;;3.20;;
15635;SDS011;7917;50.818;6.972;2022-07-01T02:20:35;6.93;;;3.03;;
15635;SDS011;7917;50.818;6.972;2022-07-01T02:23:03;7.28;;;2.95;;
15635;SDS011;7917;50.818;6.972;2022-07-01T02:25:31;9.57;;;3.15;;
15635;SDS011;7917;50.818;6.972;2022-07-01T02:27:58;4.53;;;2.33;;
15635;SDS011;7917;50.818;6.972;2022-07-01T02:30:27;3.28;;;2.30;;
15635;SDS011;7917;50.818;6.972;2022-07-01T02:32:55;3.85;;;2.65;;
15635;SDS011;7917;50.818;6.972;2022-07-01T02:35:24;3.72;;;2.50;;
15635;SDS011;7917;50.818;6.972;2022-07-01T02:37:51;10.10;;;3.30;;
15635;SDS011;7917;50.818;6.972;2022-07-01T02:40:19;3.78;;;2.78;;
15635;SDS011;7917;50.818;6.972;2022-07-01T02:42:46;12.13;;;3.00;;
15635;SDS011;7917;50.818;6.972;2022-07-01T02:45:14;5.40;;;2.42;;
15635;SDS011;7917;50.818;6.972;2022-07-01T02:47:43;6.57;;;2.72;;
15635;SDS011;7917;50.818;6.972;2022-07-01T02:50:11;4.03;;;2.95;;
15635;SDS011;7917;50.818;6.972;2022-07-01T02:52:40;2.75;;;1.95;;
15635;SDS011;7917;50.818;6.972;2022-07-01T02:55:09;5.38;;;2.30;;
15635;SDS011;7917;50.818;6.972;2022-07-01T02:57:37;8.15;;;3.20;;
15635;SDS011;7917;50.818;6.972;2022-07-01T03:00:10;3.72;;;2.22;;
15635;SDS011;7917;50.818;6.972;2022-07-01T03:02:39;5.28;;;2.50;;
15635;SDS011;7917;50.818;6.972;2022-07-01T03:05:08;3.10;;;2.00;;
15635;SDS011;7917;50.818;6.972;2022-07-01T03:07:36;7.97;;;2.40;;
15635;SDS011;7917;50.818;6.972;2022-07-01T03:10:05;5.10;;;2.38;;
15635;SDS011;7917;50.818;6.972;2022-07-01T03:12:34;6.32;;;2.25;;
15635;SDS011;7917;50.818;6.972;2022-07-01T03:15:03;2.78;;;2.50;;
15635;SDS011;7917;50.818;6.972;2022-07-01T03:17:33;6.70;;;2.25;;
15635;SDS011;7917;50.818;6.972;2022-07-01T03:20:02;2.72;;;2.17;;
15635;SDS011;7917;50.818;6.972;2022-07-01T03:22:32;4.85;;;2.15;;
15635;SDS011;7917;50.818;6.972;2022-07-01T03:25:00;6.40;;;2.58;;
15635;SDS011;7917;50.818;6.972;2022-07-01T03:27:28;13.65;;;2.42;;
15635;SDS011;7917;50.818;6.972;2022-07-01T03:29:56;3.85;;;2.17;;
15635;SDS011;7917;50.818;6.972;2022-07-01T03:32:24;3.60;;;2.30;;
15635;SDS011;7917;50.818;6.972;2022-07-01T03:34:51;5.28;;;2.20;;
15635;SDS011;7917;50.818;6.972;2022-07-01T03:37:20;6.95;;;2.10;;
15635;SDS011;7917;50.818;6.972;2022-07-01T03:39:50;6.88;;;2.40;;
15635;SDS011;7917;50.818;6.972;2022-07-01T03:42:19;8.05;;;2.30;;
15635;SDS011;7917;50.818;6.972;2022-07-01T03:44:46;5.65;;;2.53;;
15635;SDS011;7917;50.818;6.972;2022-07-01T03:47:13;6.75;;;2.35;;
15635;SDS011;7917;50.818;6.972;2022-07-01T03:49:41;10.00;;;3.03;;
15635;SDS011;7917;50.818;6.972;2022-07-01T03:52:09;3.90;;;2.53;;
15635;SDS011;7917;50.818;6.972;2022-07-01T03:54:36;6.00;;;2.53;;
15635;SDS011;7917;50.818;6.972;2022-07-01T03:57:05;5.25;;;2.20;;
15635;SDS011;7917;50.818;6.972;2022-07-01T03:59:34;3.90;;;2.25;;
15635;SDS011;7917;50.818;6.972;2022-07-01T04:02:03;7.60;;;2.25;;
15635;SDS011;7917;50.818;6.972;2022-07-01T04:04:32;4.68;;;2.33;;
15635;SDS011;7917;50.818;6.972;2022-07-01T04:07:02;7.43;;;2.17;;
15635;SDS011;7917;50.818;6.972;2022-07-01T04:09:32;4.88;;;2.08;;
15635;SDS011;7917;50.818;6.972;2022-07-01T04:11:59;2.40;;;2.03;;
15635;SDS011;7917;50.818;6.972;2022-07-01T04:14:29;4.78;;;2.47;;
15635;SDS011;7917;50.818;6.972;2022-07-01T04:16:56;6.43;;;3.03;;
15635;SDS011;7917;50.818;6.972;2022-07-01T04:19:23;6.53;;;2.22;;
15635;SDS011;7917;50.818;6.972;2022-07-01T04:21:51;5.63;;;2.30;;
15635;SDS011;7917;50.818;6.972;2022-07-01T04:24:36;4.00;;;2.30;;
15635;SDS011;7917;50.818;6.972;2022-07-01T04:27:03;6.03;;;2.42;;
15635;SDS011;7917;50.818;6.972;2022-07-01T04:29:32;6.03;;;2.53;;
15635;SDS011;7917;50.818;6.972;2022-07-01T04:32:00;5.75;;;2.33;;
15635;SDS011;7917;50.818;6.972;2022-07-01T04:34:27;17.35;;;3.67;;
15635;SDS011;7917;50.818;6.972;2022-07-01T04:36:54;8.40;;;2.35;;
15635;SDS011;7917;50.818;6.972;2022-07-01T04:39:22;4.97;;;1.83;;
15635;SDS011;7917;50.818;6.972;2022-07-01T04:41:49;5.80;;;2.10;;
15635;SDS011;7917;50.818;6.972;2022-07-01T04:44:25;5.75;;;2.58;;
15635;SDS011;7917;50.818;6.972;2022-07-01T04:46:54;13.95;;;3.33;;
15635;SDS011;7917;50.818;6.972;2022-07-01T04:49:22;3.28;;;2.10;;
15635;SDS011;7917;50.818;6.972;2022-07-01T04:51:49;6.28;;;2.20;;
15635;SDS011;7917;50.818;6.972;2022-07-01T04:54:17;4.60;;;2.40;;
15635;SDS011;7917;50.818;6.972;2022-07-01T04:56:44;6.40;;;2.22;;
15635;SDS011;7917;50.818;6.972;2022-07-01T04:59:13;5.22;;;2.20;;
15635;SDS011;7917;50.818;6.972;2022-07-01T05:01:41;5.03;;;2.08;;
15635;SDS011;7917;50.818;6.972;2022-07-01T05:04:11;5.47;;;2.03;;
15635;SDS011;7917;50.818;6.972;2022-07-01T05:06:38;5.55;;;2.47;;
15635;SDS011;7917;50.818;6.972;2022-07-01T05:09:06;7.55;;;2.22;;
15635;SDS011;7917;50.818;6.972;2022-07-01T05:11:33;3.38;;;1.90;;
15635;SDS011;7917;50.818;6.972;2022-07-01T05:14:01;7.75;;;1.90;;
15635;SDS011;7917;50.818;6.972;2022-07-01T05:16:28;20.08;;;3.72;;
15635;SDS011;7917;50.818;6.972;2022-07-01T05:18:56;7.22;;;2.20;;
15635;SDS011;7917;50.818;6.972;2022-07-01T05:21:42;8.55;;;2.40;;
15635;SDS011;7917;50.818;6.972;2022-07-01T05:24:29;4.65;;;1.98;;
15635;SDS011;7917;50.818;6.972;2022-07-01T05:26:58;4.22;;;2.15;;
15635;SDS011;7917;50.818;6.972;2022-07-01T05:29:26;9.68;;;1.92;;
15635;SDS011;7917;50.818;6.972;2022-07-01T05:31:54;5.40;;;2.05;;
15635;SDS011;7917;50.818;6.972;2022-07-01T05:34:22;2.88;;;1.80;;
15635;SDS011;7917;50.818;6.972;2022-07-01T05:36:53;5.55;;;1.70;;
15635;SDS011;7917;50.818;6.972;2022-07-01T05:39:25;9.30;;;2.15;;
15635;SDS011;7917;50.818;6.972;2022-07-01T05:41:53;7.47;;;2.20;;
15635;SDS011;7917;50.818;6.972;2022-07-01T05:44:20;7.93;;;2.22;;
15635;SDS011;7917;50.818;6.972;2022-07-01T05:46:49;5.22;;;2.58;;
15635;SDS011;7917;50.818;6.972;2022-07-01T05:49:17;8.20;;;2.92;;
15635;SDS011;7917;50.818;6.972;2022-07-01T05:51:57;4.03;;;2.20;;
15635;SDS011;7917;50.818;6.972;2022-07-01T05:54:27;7.22;;;2.13;;
15635;SDS011;7917;50.818;6.972;2022-07-01T05:56:56;6.90;;;2.40;;
15635;SDS011;7917;50.818;6.972;2022-07-01T05:59:24;6.55;;;2.13;;
15635;SDS011;7917;50.818;6.972;2022-07-01T06:01:53;6.55;;;1.90;;
15635;SDS011;7917;50.818;6.972;2022-07-01T06:04:21;3.97;;;1.77;;
15635;SDS011;7917;50.818;6.972;2022-07-01T06:06:48;7.43;;;1.95;;
15635;SDS011;7917;50.818;6.972;2022-07-01T06:09:17;4.85;;;2.10;;
15635;SDS011;7917;50.818;6.972;2022-07-01T06:11:44;6.63;;;2.30;;
15635;SDS011;7917;50.818;6.972;2022-07-01T06:14:12;5.47;;;2.28;;
15635;SDS011;7917;50.818;6.972;2022-07-01T06:16:40;5.05;;;2.20;;
15635;SDS011;7917;50.818;6.972;2022-07-01T06:19:07;5.97;;;2.22;;
15635;SDS011;7917;50.818;6.972;2022-07-01T06:21:35;5.68;;;2.30;;
15635;SDS011;7917;50.818;6.972;2022-07-01T06:24:02;6.93;;;2.50;;
15635;SDS011;7917;50.818;6.972;2022-07-01T06:26:32;3.65;;;1.88;;
15635;SDS011;7917;50.818;6.972;2022-07-01T06:28:59;4.35;;;1.95;;
15635;SDS011;7917;50.818;6.972;2022-07-01T06:31:27;8.20;;;2.28;;
15635;SDS011;7917;50.818;6.972;2022-07-01T06:33:55;4.18;;;2.10;;
15635;SDS011;7917;50.818;6.972;2022-07-01T06:36:22;8.73;;;2.53;;
15635;SDS011;7917;50.818;6.972;2022-07-01T06:38:50;4.20;;;1.90;;
15635;SDS011;7917;50.818;6.972;2022-07-01T06:41:18;7.53;;;2.40;;
15635;SDS011;7917;50.818;6.972;2022-07-01T06:43:56;8.25;;;2.35;;
15635;SDS011;7917;50.818;6.972;2022-07-01T06:46:25;4.90;;;2.45;;
15635;SDS011;7917;50.818;6.972;2022-07-01T06:48:53;6.53;;;2.33;;
15635;SDS011;7917;50.818;6.972;2022-07-01T06:51:21;3.40;;;2.00;;
15635;SDS011;7917;50.818;6.972;2022-07-01T06:53:50;3.67;;;1.83;;
15635;SDS011;7917;50.818;6.972;2022-07-01T06:56:18;6.18;;;1.98;;
15635;SDS011;7917;50.818;6.972;2022-07-01T06:58:46;5.55;;;1.90;;
15635;SDS011;7917;50.818;6.972;2022-07-01T07:01:17;4.18;;;1.88;;
15635;SDS011;7917;50.818;6.972;2022-07-01T07:03:53;5.45;;;1.77;;
15635;SDS011;7917;50.818;6.972;2022-07-01T07:06:37;6.28;;;1.85;;
15635;SDS011;7917;50.818;6.972;2022-07-01T07:09:07;3.70;;;1.80;;
15635;SDS011;7917;50.818;6.972;2022-07-01T07:11:40;5.43;;;1.52;;
15635;SDS011;7917;50.818;6.972;2022-07-01T07:14:09;7.32;;;1.65;;
15635;SDS011;7917;50.818;6.972;2022-07-01T07:16:38;4.60;;;1.95;;
15635;SDS011;7917;50.818;6.972;2022-07-01T07:19:06;7.70;;;2.20;;
15635;SDS011;7917;50.818;6.972;2022-07-01T07:21:33;5.68;;;1.58;;
15635;SDS011;7917;50.818;6.972;2022-07-01T07:24:01;5.25;;;1.73;;
15635;SDS011;7917;50.818;6.972;2022-07-01T07:26:29;2.65;;;1.42;;
15635;SDS011;7917;50.818;6.972;2022-07-01T07:28:57;5.45;;;1.90;;
15635;SDS011;7917;50.818;6.972;2022-07-01T07:31:24;6.25;;;1.90;;
15635;SDS011;7917;50.818;6.972;2022-07-01T07:33:53;3.10;;;1.60;;
15635;SDS011;7917;50.818;6.972;2022-07-01T07:36:20;3.25;;;1.50;;
15635;SDS011;7917;50.818;6.972;2022-07-01T07:38:48;4.75;;;1.40;;
15635;SDS011;7917;50.818;6.972;2022-07-01T07:41:16;7.72;;;1.27;;
15635;SDS011;7917;50.818;6.972;2022-07-01T07:43:43;3.53;;;1.60;;
15635;SDS011;7917;50.818;6.972;2022-07-01T07:46:13;4.63;;;1.27;;
15635;SDS011;7917;50.818;6.972;2022-07-01T07:48:41;5.47;;;1.30;;
15635;SDS011;7917;50.818;6.972;2022-07-01T07:51:11;3.72;;;1.20;;
15635;SDS011;7917;50.818;6.972;2022-07-01T07:53:42;2.65;;;1.08;;
15635;SDS011;7917;50.818;6.972;2022-07-01T07:56:10;2.20;;;1.00;;
15635;SDS011;7917;50.818;6.972;2022-07-01T07:58:38;2.17;;;1.40;;
15635;SDS011;7917;50.818;6.972;2022-07-01T08:01:09;4.32;;;0.98;;
15635;SDS011;7917;50.818;6.972;2022-07-01T08:03:37;1.85;;;1.25;;
15635;SDS011;7917;50.818;6.972;2022-07-01T08:06:05;2.88;;;0.90;;
15635;SDS011;7917;50.818;6.972;2022-07-01T08:08:34;1.02;;;0.93;;
15635;SDS011;7917;50.818;6.972;2022-07-01T08:11:02;3.63;;;1.13;;
15635;SDS011;7917;50.818;6.972;2022-07-01T08:13:30;2.45;;;1.63;;
15635;SDS011;7917;50.818;6.972;2022-07-01T08:15:57;7.20;;;1.40;;
15635;SDS011;7917;50.818;6.972;2022-07-01T08:18:24;3.13;;;1.25;;
15635;SDS011;7917;50.818;6.972;2022-07-01T08:20:53;5.32;;;1.63;;
15635;SDS011;7917;50.818;6.972;2022-07-01T08:23:21;3.20;;;1.67;;
15635;SDS011;7917;50.818;6.972;2022-07-01T08:25:50;3.53;;;1.63;;
15635;SDS011;7917;50.818;6.972;2022-07-01T08:28:17;2.35;;;1.55;;
15635;SDS011;7917;50.818;6.972;2022-07-01T08:30:45;4.97;;;2.10;;
15635;SDS011;7917;50.818;6.972;2022-07-01T08:33:13;2.35;;;1.30;;
15635;SDS011;7917;50.818;6.972;2022-07-01T08:35:40;3.05;;;1.65;;
15635;SDS011;7917;50.818;6.972;2022-07-01T08:38:08;3.08;;;1.30;;
15635;SDS011;7917;50.818;6.972;2022-07-01T08:40:36;1.75;;;1.35;;
15635;SDS011;7917;50.818;6.972;2022-07-01T08:43:06;1.90;;;1.35;;
15635;SDS011;7917;50.818;6.972;2022-07-01T08:45:34;1.92;;;1.23;;
15635;SDS011;7917;50.818;6.972;2022-07-01T08:48:05;3.17;;;1.70;;
15635;SDS011;7917;50.818;6.972;2022-07-01T08:50:34;2.55;;;1.70;;
15635;SDS011;7917;50.818;6.972;2022-07-01T08:53:04;2.75;;;1.38;;
15635;SDS011;7917;50.818;6.972;2022-07-01T08:55:32;2.97;;;1.20;;
15635;SDS011;7917;50.818;6.972;2022-07-01T08:58:24;1.50;;;1.40;;
15635;SDS011;7917;50.818;6.972;2022-07-01T09:00:52;2.17;;;1.15;;
15635;SDS011;7917;50.818;6.972;2022-07-01T09:03:37;2.50;;;1.20;;
15635;SDS011;7917;50.818;6.972;2022-07-01T09:06:05;2.17;;;1.10;;
15635;SDS011;7917;50.818;6.972;2022-07-01T09:08:39;2.60;;;1.10;;
15635;SDS011;7917;50.818;6.972;2022-07-01T09:11:11;3.42;;;1.20;;
15635;SDS011;7917;50.818;6.972;2022-07-01T09:13:42;3.03;;;1.23;;
15635;SDS011;7917;50.818;6.972;2022-07-01T09:16:11;2.20;;;1.15;;
15635;SDS011;7917;50.818;6.972;2022-07-01T09:18:40;0.98;;;0.80;;
15635;SDS011;7917;50.818;6.972;2022-07-01T09:21:27;2.22;;;1.00;;
15635;SDS011;7917;50.818;6.972;2022-07-01T09:23:56;2.40;;;1.33;;
15635;SDS011;7917;50.818;6.972;2022-07-01T09:26:24;6.40;;;1.20;;
15635;SDS011;7917;50.818;6.972;2022-07-01T09:28:54;4.53;;;1.50;;
15635;SDS011;7917;50.818;6.972;2022-07-01T09:31:22;4.68;;;1.10;;
15635;SDS011;7917;50.818;6.972;2022-07-01T09:34:03;1.38;;;1.15;;
15635;SDS011;7917;50.818;6.972;2022-07-01T09:36:31;1.50;;;1.00;;
15635;SDS011;7917;50.818;6.972;2022-07-01T09:39:03;2.25;;;1.00;;
15635;SDS011;7917;50.818;6.972;2022-07-01T09:41:35;2.00;;;1.20;;
15635;SDS011;7917;50.818;6.972;2022-07-01T09:44:06;3.60;;;1.20;;
15635;SDS011;7917;50.818;6.972;2022-07-01T09:46:34;2.10;;;1.00;;
15635;SDS011;7917;50.818;6.972;2022-07-01T09:49:03;3.47;;;1.35;;
15635;SDS011;7917;50.818;6.972;2022-07-01T09:51:31;2.15;;;1.33;;
15635;SDS011;7917;50.818;6.972;2022-07-01T09:53:58;4.30;;;1.30;;
15635;SDS011;7917;50.818;6.972;2022-07-01T09:56:26;1.30;;;0.88;;
15635;SDS011;7917;50.818;6.972;2022-07-01T09:58:54;2.17;;;0.90;;
15635;SDS011;7917;50.818;6.972;2022-07-01T10:01:24;3.15;;;1.17;;
15635;SDS011;7917;50.818;6.972;2022-07-01T10:03:55;1.95;;;0.88;;
15635;SDS011;7917;50.818;6.972;2022-07-01T10:12:33;2.22;;;0.80;;
15635;SDS011;7917;50.818;6.972;2022-07-01T10:15:02;1.58;;;0.95;;
15635;SDS011;7917;50.818;6.972;2022-07-01T10:17:35;1.85;;;0.95;;
15635;SDS011;7917;50.818;6.972;2022-07-01T10:20:09;2.70;;;1.05;;
15635;SDS011;7917;50.818;6.972;2022-07-01T10:22:39;2.85;;;1.10;;
15635;SDS011;7917;50.818;6.972;2022-07-01T10:28:17;3.72;;;1.17;;
15635;SDS011;7917;50.818;6.972;2022-07-01T10:30:50;2.92;;;1.10;;
15635;SDS011;7917;50.818;6.972;2022-07-01T10:36:17;1.67;;;0.70;;
15635;SDS011;7917;50.818;6.972;2022-07-01T10:39:08;1.45;;;0.88;;
15635;SDS011;7917;50.818;6.972;2022-07-01T10:44:38;3.58;;;1.10;;
15635;SDS011;7917;50.818;6.972;2022-07-01T10:47:07;1.90;;;1.20;;
15635;SDS011;7917;50.818;6.972;2022-07-01T10:52:31;1.75;;;1.00;;
15635;SDS011;7917;50.818;6.972;2022-07-01T10:55:00;2.67;;;1.05;;
15635;SDS011;7917;50.818;6.972;2022-07-01T10:57:30;1.85;;;1.10;;
15635;SDS011;7917;50.818;6.972;2022-07-01T11:03:13;1.17;;;0.80;;
15635;SDS011;7917;50.818;6.972;2022-07-01T11:05:44;1.77;;;1.17;;
15635;SDS011;7917;50.818;6.972;2022-07-01T11:08:15;1.13;;;0.90;;
15635;SDS011;7917;50.818;6.972;2022-07-01T11:10:42;1.27;;;1.00;;
15635;SDS011;7917;50.818;6.972;2022-07-01T11:13:13;3.97;;;1.25;;
15635;SDS011;7917;50.818;6.972;2022-07-01T11:15:44;1.80;;;1.10;;
15635;SDS011;7917;50.818;6.972;2022-07-01T11:18:13;1.77;;;1.33;;
15635;SDS011;7917;50.818;6.972;2022-07-01T11:20:41;1.20;;;1.08;;
15635;SDS011;7917;50.818;6.972;2022-07-01T11:23:12;3.90;;;1.33;;
15635;SDS011;7917;50.818;6.972;2022-07-01T11:25:41;2.03;;;1.35;;
15635;SDS011;7917;50.818;6.972;2022-07-01T11:28:10;4.00;;;1.80;;
15635;SDS011;7917;50.818;6.972;2022-07-01T11:30:38;3.13;;;1.35;;
15635;SDS011;7917;50.818;6.972;2022-07-01T11:33:07;4.38;;;1.38;;
15635;SDS011;7917;50.818;6.972;2022-07-01T11:35:40;2.50;;;1.00;;
15635;SDS011;7917;50.818;6.972;2022-07-01T11:38:31;1.92;;;1.10;;
15635;SDS011;7917;50.818;6.972;2022-07-01T11:41:19;2.85;;;1.63;;
15635;SDS011;7917;50.818;6.972;2022-07-01T11:43:48;1.70;;;1.40;;
15635;SDS011;7917;50.818;6.972;2022-07-01T11:46:16;2.92;;;1.25;;
15635;SDS011;7917;50.818;6.972;2022-07-01T11:48:45;2.15;;;1.02;;
15635;SDS011;7917;50.818;6.972;2022-07-01T11:51:16;3.08;;;1.00;;
15635;SDS011;7917;50.818;6.972;2022-07-01T11:53:45;2.35;;;1.00;;
15635;SDS011;7917;50.818;6.972;2022-07-01T11:56:15;2.00;;;1.13;;
15635;SDS011;7917;50.818;6.972;2022-07-01T11:58:44;3.22;;;1.02;;
15635;SDS011;7917;50.818;6.972;2022-07-01T12:01:25;3.08;;;1.30;;
15635;SDS011;7917;50.818;6.972;2022-07-01T12:03:55;1.77;;;1.00;;
15635;SDS011;7917;50.818;6.972;2022-07-01T12:06:26;1.65;;;1.23;;
15635;SDS011;7917;50.818;6.972;2022-07-01T12:08:54;2.22;;;0.90;;
15635;SDS011;7917;50.818;6.972;2022-07-01T12:11:22;1.77;;;1.10;;
15635;SDS011;7917;50.818;6.972;2022-07-01T12:13:51;2.03;;;1.40;;
15635;SDS011;7917;50.818;6.972;2022-07-01T12:16:20;4.40;;;1.25;;
15635;SDS011;7917;50.818;6.972;2022-07-01T12:18:55;3.30;;;1.15;;
15635;SDS011;7917;50.818;6.972;2022-07-01T12:21:30;7.15;;;1.40;;
15635;SDS011;7917;50.818;6.972;2022-07-01T12:24:13;3.58;;;1.05;;
15635;SDS011;7917;50.818;6.972;2022-07-01T12:26:46;1.10;;;0.90;;
15635;SDS011;7917;50.818;6.972;2022-07-01T12:29:16;4.07;;;1.40;;
15635;SDS011;7917;50.818;6.972;2022-07-01T12:31:53;2.08;;;1.42;;
15635;SDS011;7917;50.818;6.972;2022-07-01T12:34:22;3.83;;;1.40;;
15635;SDS011;7917;50.818;6.972;2022-07-01T12:37:04;2.80;;;1.35;;
15635;SDS011;7917;50.818;6.972;2022-07-01T12:39:41;3.30;;;1.30;;
15635;SDS011;7917;50.818;6.972;2022-07-01T12:42:19;2.47;;;1.20;;
15635;SDS011;7917;50.818;6.972;2022-07-01T12:44:52;3.38;;;1.52;;
15635;SDS011;7917;50.818;6.972;2022-07-01T12:47:21;3.30;;;1.25;;
15635;SDS011;7917;50.818;6.972;2022-07-01T12:50:10;2.30;;;1.02;;
15635;SDS011;7917;50.818;6.972;2022-07-01T12:52:41;2.63;;;1.23;;
15635;SDS011;7917;50.818;6.972;2022-07-01T12:55:16;3.22;;;0.90;;
15635;SDS011;7917;50.818;6.972;2022-07-01T12:57:45;3.13;;;1.05;;
15635;SDS011;7917;50.818;6.972;2022-07-01T13:00:15;2.47;;;0.90;;
15635;SDS011;7917;50.818;6.972;2022-07-01T13:02:43;1.25;;;0.70;;
15635;SDS011;7917;50.818;6.972;2022-07-01T13:05:11;2.75;;;0.95;;
15635;SDS011;7917;50.818;6.972;2022-07-01T13:07:40;2.95;;;0.98;;
15635;SDS011;7917;50.818;6.972;2022-07-01T13:10:08;1.48;;;0.70;;
15635;SDS011;7917;50.818;6.972;2022-07-01T13:12:36;2.58;;;1.30;;
15635;SDS011;7917;50.818;6.972;2022-07-01T13:15:04;2.70;;;1.52;;
15635;SDS011;7917;50.818;6.972;2022-07-01T13:17:32;1.15;;;0.80;;
15635;SDS011;7917;50.818;6.972;2022-07-01T13:20:04;3.85;;;1.00;;
15635;SDS011;7917;50.818;6.972;2022-07-01T13:22:33;1.30;;;0.80;;
15635;SDS011;7917;50.818;6.972;2022-07-01T13:25:03;2.65;;;0.63;;
15635;SDS011;7917;50.818;6.972;2022-07-01T13:27:34;2.08;;;0.82;;
15635;SDS011;7917;50.818;6.972;2022-07-01T13:30:03;3.72;;;0.70;;
15635;SDS011;7917;50.818;6.972;2022-07-01T13:32:34;2.95;;;0.70;;
15635;SDS011;7917;50.818;6.972;2022-07-01T13:35:02;1.88;;;0.80;;
15635;SDS011;7917;50.818;6.972;2022-07-01T13:37:30;3.20;;;1.13;;
15635;SDS011;7917;50.818;6.972;2022-07-01T13:39:59;2.35;;;0.93;;
15635;SDS011;7917;50.818;6.972;2022-07-01T13:42:29;2.70;;;0.80;;
15635;SDS011;7917;50.818;6.972;2022-07-01T13:44:57;10.57;;;0.95;;
15635;SDS011;7917;50.818;6.972;2022-07-01T13:47:24;2.22;;;0.80;;
15635;SDS011;7917;50.818;6.972;2022-07-01T13:49:52;2.45;;;0.70;;
15635;SDS011;7917;50.818;6.972;2022-07-01T13:52:20;2.97;;;0.80;;
15635;SDS011;7917;50.818;6.972;2022-07-01T13:54:49;2.45;;;0.73;;
15635;SDS011;7917;50.818;6.972;2022-07-01T13:57:16;0.93;;;0.63;;
15635;SDS011;7917;50.818;6.972;2022-07-01T13:59:45;1.17;;;0.60;;
15635;SDS011;7917;50.818;6.972;2022-07-01T14:02:12;2.92;;;0.80;;
15635;SDS011;7917;50.818;6.972;2022-07-01T14:04:42;3.20;;;0.93;;
15635;SDS011;7917;50.818;6.972;2022-07-01T14:07:09;2.17;;;0.98;;
15635;SDS011;7917;50.818;6.972;2022-07-01T14:09:37;0.80;;;0.73;;
15635;SDS011;7917;50.818;6.972;2022-07-01T14:12:06;4.00;;;1.15;;
15635;SDS011;7917;50.818;6.972;2022-07-01T14:14:35;1.90;;;0.98;;
15635;SDS011;7917;50.818;6.972;2022-07-01T14:17:10;2.42;;;0.88;;
15635;SDS011;7917;50.818;6.972;2022-07-01T14:19:40;2.78;;;1.10;;
15635;SDS011;7917;50.818;6.972;2022-07-01T14:22:08;2.33;;;0.80;;
15635;SDS011;7917;50.818;6.972;2022-07-01T14:24:40;2.67;;;0.98;;
15635;SDS011;7917;50.818;6.972;2022-07-01T14:27:08;4.10;;;0.82;;
15635;SDS011;7917;50.818;6.972;2022-07-01T14:29:37;2.58;;;0.82;;
15635;SDS011;7917;50.818;6.972;2022-07-01T14:32:07;2.05;;;0.82;;
15635;SDS011;7917;50.818;6.972;2022-07-01T14:34:38;1.75;;;0.73;;
15635;SDS011;7917;50.818;6.972;2022-07-01T14:37:09;1.20;;;0.98;;
15635;SDS011;7917;50.818;6.972;2022-07-01T14:39:39;2.55;;;0.80;;
15635;SDS011;7917;50.818;6.972;2022-07-01T14:42:08;3.08;;;0.65;;
15635;SDS011;7917;50.818;6.972;2022-07-01T14:44:35;1.50;;;0.55;;
15635;SDS011;7917;50.818;6.972;2022-07-01T14:47:03;1.15;;;0.80;;
15635;SDS011;7917;50.818;6.972;2022-07-01T14:49:33;3.38;;;0.70;;
15635;SDS011;7917;50.818;6.972;2022-07-01T14:52:01;1.23;;;0.50;;
15635;SDS011;7917;50.818;6.972;2022-07-01T14:54:30;1.02;;;0.50;;
15635;SDS011;7917;50.818;6.972;2022-07-01T14:57:01;2.42;;;0.50;;
15635;SDS011;7917;50.818;6.972;2022-07-01T14:59:28;1.15;;;0.55;;
15635;SDS011;7917;50.818;6.972;2022-07-01T15:01:57;0.80;;;0.40;;
15635;SDS011;7917;50.818;6.972;2022-07-01T15:04:30;5.47;;;0.70;;
15635;SDS011;7917;50.818;6.972;2022-07-01T15:06:59;0.55;;;0.40;;
15635;SDS011;7917;50.818;6.972;2022-07-01T15:09:29;1.92;;;0.50;;
15635;SDS011;7917;50.818;6.972;2022-07-01T15:11:58;0.90;;;0.40;;
15635;SDS011;7917;50.818;6.972;2022-07-01T15:14:29;0.93;;;0.50;;
15635;SDS011;7917;50.818;6.972;2022-07-01T15:16:57;0.80;;;0.50;;
15635;SDS011;7917;50.818;6.972;2022-07-01T15:19:24;2.03;;;1.33;;
15635;SDS011;7917;50.818;6.972;2022-07-01T15:21:52;1.35;;;0.88;;
15635;SDS011;7917;50.818;6.972;2022-07-01T15:24:22;0.70;;;0.50;;
15635;SDS011;7917;50.818;6.972;2022-07-01T15:26:50;2.40;;;0.55;;
15635;SDS011;7917;50.818;6.972;2022-07-01T15:29:19;1.55;;;0.70;;
15635;SDS011;7917;50.818;6.972;2022-07-01T15:31:47;1.10;;;0.55;;
15635;SDS011;7917;50.818;6.972;2022-07-01T15:34:15;0.77;;;0.60;;